sensor_id;sensor_type;location;lat;lon;timestamp;pressure;altitude;pressure_sealevel;temperature;humidity
6090;BME280;3073;42.660;23.316;2022-12-07T00:01:15;94476.25;;;4.86;100.00
6090;BME280;3073;42.660;23.316;2022-12-07T00:03:44;94471.53;;;4.96;100.00
6090;BME280;3073;42.660;23.316;2022-12-07T00:06:13;94472.38;;;4.83;100.00
6090;BME280;3073;42.660;23.316;2022-12-07T00:08:42;94469.22;;;4.88;100.00
6090;BME280;3073;42.660;23.316;2022-12-07T00:11:11;94461.25;;;4.84;100.00
6090;BME280;3073;42.660;23.316;2022-12-07T00:13:39;94463.22;;;4.82;100.00
6090;BME280;3073;42.660;23.316;2022-12-07T00:16:10;94459.88;;;4.95;100.00
6090;BME280;3073;42.660;23.316;2022-12-07T00:18:37;94463.31;;;5.07;100.00
6090;BME280;3073;42.660;23.316;2022-12-07T00:21:05;94461.28;;;5.22;100.00
6090;BME280;3073;42.660;23.316;2022-12-07T00:23:33;94457.31;;;5.33;100.00
6090;BME280;3073;42.660;23.316;2022-12-07T00:26:08;94462.44;;;5.26;100.00
6090;BME280;3073;42.660;23.316;2022-12-07T00:28:35;94465.47;;;5.35;100.00
6090;BME280;3073;42.660;23.316;2022-12-07T00:31:06;94464.50;;;5.36;100.00
6090;BME280;3073;42.660;23.316;2022-12-07T00:33:34;94467.56;;;5.44;100.00
6090;BME280;3073;42.660;23.316;2022-12-07T00:36:03;94473.66;;;5.37;100.00
6090;BME280;3073;42.660;23.316;2022-12-07T00:38:32;94470.47;;;5.16;100.00
6090;BME280;3073;42.660;23.316;2022-12-07T00:41:01;94464.31;;;5.31;100.00
6090;BME280;3073;42.660;23.316;2022-12-07T00:43:30;94453.59;;;5.35;100.00
6090;BME280;3073;42.660;23.316;2022-12-07T00:45:58;94465.03;;;5.44;100.00
6090;BME280;3073;42.660;23.316;2022-12-07T00:48:25;94466.56;;;5.45;100.00
6090;BME280;3073;42.660;23.316;2022-12-07T00:50:52;94464.97;;;5.51;100.00
6090;BME280;3073;42.660;23.316;2022-12-07T00:53:19;94470.81;;;5.51;100.00
6090;BME280;3073;42.660;23.316;2022-12-07T00:55:47;94460.34;;;5.48;100.00
6090;BME280;3073;42.660;23.316;2022-12-07T00:58:14;94461.53;;;5.45;100.00
6090;BME280;3073;42.660;23.316;2022-12-07T01:00:43;94463.06;;;5.46;100.00
6090;BME280;3073;42.660;23.316;2022-12-07T01:03:11;94464.78;;;5.21;100.00
6090;BME280;3073;42.660;23.316;2022-12-07T01:05:39;94467.16;;;5.16;100.00
6090;BME280;3073;42.660;23.316;2022-12-07T01:08:06;94455.78;;;4.94;100.00
6090;BME280;3073;42.660;23.316;2022-12-07T01:10:33;94453.31;;;4.81;100.00
6090;BME280;3073;42.660;23.316;2022-12-07T01:13:00;94452.59;;;4.74;100.00
6090;BME280;3073;42.660;23.316;2022-12-07T01:15:27;94447.53;;;4.74;100.00
6090;BME280;3073;42.660;23.316;2022-12-07T01:17:55;94438.41;;;4.66;100.00
6090;BME280;3073;42.660;23.316;2022-12-07T01:20:22;94440.38;;;4.57;100.00
6090;BME280;3073;42.660;23.316;2022-12-07T01:22:49;94434.31;;;4.72;100.00
6090;BME280;3073;42.660;23.316;2022-12-07T01:25:16;94437.81;;;4.71;100.00
6090;BME280;3073;42.660;23.316;2022-12-07T01:27:43;94427.13;;;4.68;100.00
6090;BME280;3073;42.660;23.316;2022-12-07T01:30:11;94429.06;;;4.73;100.00
6090;BME280;3073;42.660;23.316;2022-12-07T01:32:38;94424.38;;;4.77;100.00
6090;BME280;3073;42.660;23.316;2022-12-07T01:35:07;94420.34;;;4.62;100.00
6090;BME280;3073;42.660;23.316;2022-12-07T01:37:35;94422.25;;;4.74;100.00
6090;BME280;3073;42.660;23.316;2022-12-07T01:40:03;94425.31;;;4.82;100.00
6090;BME280;3073;42.660;23.316;2022-12-07T01:42:31;94426.09;;;4.83;100.00
6090;BME280;3073;42.660;23.316;2022-12-07T01:48:01;94428.84;;;4.75;100.00
6090;BME280;3073;42.660;23.316;2022-12-07T01:50:30;94426.09;;;4.83;100.00
6090;BME280;3073;42.660;23.316;2022-12-07T01:53:00;94426.31;;;4.75;100.00
6090;BME280;3073;42.660;23.316;2022-12-07T01:55:27;94420.16;;;4.64;100.00
6090;BME280;3073;42.660;23.316;2022-12-07T01:57:55;94423.00;;;4.74;100.00
6090;BME280;3073;42.660;23.316;2022-12-07T02:00:23;94414.88;;;4.72;100.00
6090;BME280;3073;42.660;23.316;2022-12-07T02:02:56;94406.69;;;4.77;100.00
6090;BME280;3073;42.660;23.316;2022-12-07T02:05:25;94400.25;;;4.81;100.00
6090;BME280;3073;42.660;23.316;2022-12-07T02:07:55;94400.28;;;4.74;100.00
6090;BME280;3073;42.660;23.316;2022-12-07T02:10:25;94409.03;;;4.72;100.00
6090;BME280;3073;42.660;23.316;2022-12-07T02:12:54;94407.41;;;4.84;100.00
6090;BME280;3073;42.660;23.316;2022-12-07T02:15:27;94408.34;;;4.96;100.00
6090;BME280;3073;42.660;23.316;2022-12-07T02:18:00;94412.00;;;5.00;100.00
6090;BME280;3073;42.660;23.316;2022-12-07T02:20:33;94407.75;;;4.94;100.00
6090;BME280;3073;42.660;23.316;2022-12-07T02:23:28;94412.44;;;4.97;100.00
6090;BME280;3073;42.660;23.316;2022-12-07T02:26:19;94413.94;;;4.98;100.00
6090;BME280;3073;42.660;23.316;2022-12-07T02:29:10;94412.16;;;5.05;100.00
6090;BME280;3073;42.660;23.316;2022-12-07T02:31:43;94405.16;;;5.07;100.00
6090;BME280;3073;42.660;23.316;2022-12-07T02:34:17;94398.16;;;5.09;100.00
6090;BME280;3073;42.660;23.316;2022-12-07T02:36:52;94397.81;;;4.99;100.00
6090;BME280;3073;42.660;23.316;2022-12-07T02:39:26;94395.94;;;4.88;100.00
6090;BME280;3073;42.660;23.316;2022-12-07T02:41:58;94404.56;;;4.74;100.00
6090;BME280;3073;42.660;23.316;2022-12-07T02:44:31;94399.81;;;4.52;100.00
6090;BME280;3073;42.660;23.316;2022-12-07T02:47:02;94391.66;;;4.44;100.00
6090;BME280;3073;42.660;23.316;2022-12-07T02:49:30;94395.59;;;4.40;100.00
6090;BME280;3073;42.660;23.316;2022-12-07T02:51:57;94390.97;;;4.30;100.00
6090;BME280;3073;42.660;23.316;2022-12-07T02:54:24;94392.72;;;4.30;100.00
6090;BME280;3073;42.660;23.316;2022-12-07T02:56:57;94385.91;;;4.30;100.00
6090;BME280;3073;42.660;23.316;2022-12-07T02:59:39;94375.09;;;4.54;100.00
6090;BME280;3073;42.660;23.316;2022-12-07T03:02:17;94366.34;;;4.63;100.00
6090;BME280;3073;42.660;23.316;2022-12-07T03:04:53;94373.25;;;4.75;100.00
6090;BME280;3073;42.660;23.316;2022-12-07T03:07:33;94374.78;;;4.82;100.00
6090;BME280;3073;42.660;23.316;2022-12-07T03:10:10;94369.88;;;4.87;100.00
6090;BME280;3073;42.660;23.316;2022-12-07T03:12:44;94362.47;;;4.92;100.00
6090;BME280;3073;42.660;23.316;2022-12-07T03:15:17;94365.94;;;4.98;100.00
6090;BME280;3073;42.660;23.316;2022-12-07T03:17:47;94358.34;;;4.98;100.00
6090;BME280;3073;42.660;23.316;2022-12-07T03:20:19;94367.44;;;5.05;100.00
6090;BME280;3073;42.660;23.316;2022-12-07T03:22:49;94374.25;;;5.05;100.00
6090;BME280;3073;42.660;23.316;2022-12-07T03:25:18;94373.28;;;5.06;100.00
6090;BME280;3073;42.660;23.316;2022-12-07T03:27:50;94370.75;;;5.06;100.00
6090;BME280;3073;42.660;23.316;2022-12-07T03:30:26;94384.91;;;4.76;100.00
6090;BME280;3073;42.660;23.316;2022-12-07T03:32:58;94389.56;;;4.79;100.00
6090;BME280;3073;42.660;23.316;2022-12-07T03:35:30;94377.97;;;4.64;100.00
6090;BME280;3073;42.660;23.316;2022-12-07T03:38:00;94382.03;;;4.72;100.00
6090;BME280;3073;42.660;23.316;2022-12-07T03:40:35;94376.81;;;4.60;100.00
6090;BME280;3073;42.660;23.316;2022-12-07T03:43:04;94371.44;;;4.57;100.00
6090;BME280;3073;42.660;23.316;2022-12-07T03:45:44;94380.75;;;4.56;100.00
6090;BME280;3073;42.660;23.316;2022-12-07T03:48:20;94381.97;;;4.41;100.00
6090;BME280;3073;42.660;23.316;2022-12-07T03:50:52;94377.75;;;4.28;100.00
6090;BME280;3073;42.660;23.316;2022-12-07T03:53:24;94377.72;;;4.35;100.00
6090;BME280;3073;42.660;23.316;2022-12-07T03:55:57;94372.94;;;4.20;100.00
6090;BME280;3073;42.660;23.316;2022-12-07T03:58:25;94367.63;;;4.35;100.00
6090;BME280;3073;42.660;23.316;2022-12-07T04:00:54;94370.53;;;4.32;100.00
6090;BME280;3073;42.660;23.316;2022-12-07T04:03:21;94369.75;;;4.31;100.00
6090;BME280;3073;42.660;23.316;2022-12-07T04:05:48;94361.75;;;4.41;100.00
6090;BME280;3073;42.660;23.316;2022-12-07T04:08:16;94368.00;;;4.38;100.00
6090;BME280;3073;42.660;23.316;2022-12-07T04:10:43;94366.47;;;4.31;100.00
6090;BME280;3073;42.660;23.316;2022-12-07T04:13:09;94362.78;;;4.33;100.00
6090;BME280;3073;42.660;23.316;2022-12-07T04:15:58;94363.16;;;4.37;100.00
6090;BME280;3073;42.660;23.316;2022-12-07T04:18:36;94364.56;;;4.26;100.00
6090;BME280;3073;42.660;23.316;2022-12-07T04:21:03;94359.16;;;4.16;100.00
6090;BME280;3073;42.660;23.316;2022-12-07T04:23:30;94362.25;;;4.18;100.00
6090;BME280;3073;42.660;23.316;2022-12-07T04:25:57;94367.66;;;4.22;100.00
6090;BME280;3073;42.660;23.316;2022-12-07T04:28:25;94364.78;;;4.11;100.00
6090;BME280;3073;42.660;23.316;2022-12-07T04:30:52;94370.44;;;4.13;100.00
6090;BME280;3073;42.660;23.316;2022-12-07T04:33:20;94364.19;;;4.16;100.00
6090;BME280;3073;42.660;23.316;2022-12-07T04:35:50;94371.94;;;4.21;100.00
6090;BME280;3073;42.660;23.316;2022-12-07T04:38:17;94365.13;;;4.28;100.00
6090;BME280;3073;42.660;23.316;2022-12-07T04:40:44;94372.53;;;4.23;100.00
6090;BME280;3073;42.660;23.316;2022-12-07T04:43:11;94371.94;;;4.21;100.00
6090;BME280;3073;42.660;23.316;2022-12-07T04:45:37;94379.34;;;4.16;100.00
6090;BME280;3073;42.660;23.316;2022-12-07T04:48:04;94382.88;;;4.02;100.00
6090;BME280;3073;42.660;23.316;2022-12-07T04:50:35;94373.38;;;3.91;100.00
6090;BME280;3073;42.660;23.316;2022-12-07T04:53:03;94372.41;;;3.92;100.00
6090;BME280;3073;42.660;23.316;2022-12-07T04:55:30;94372.03;;;3.95;100.00
6090;BME280;3073;42.660;23.316;2022-12-07T04:57:57;94369.69;;;4.06;100.00
6090;BME280;3073;42.660;23.316;2022-12-07T05:00:24;94364.66;;;4.00;100.00
6090;BME280;3073;42.660;23.316;2022-12-07T05:02:50;94361.94;;;3.95;100.00
6090;BME280;3073;42.660;23.316;2022-12-07T05:05:17;94369.34;;;3.90;100.00
6090;BME280;3073;42.660;23.316;2022-12-07T05:07:45;94367.94;;;3.87;100.00
6090;BME280;3073;42.660;23.316;2022-12-07T05:10:12;94371.41;;;4.06;100.00
6090;BME280;3073;42.660;23.316;2022-12-07T05:12:39;94364.59;;;4.13;100.00
6090;BME280;3073;42.660;23.316;2022-12-07T05:15:06;94370.44;;;4.13;100.00
6090;BME280;3073;42.660;23.316;2022-12-07T05:17:33;94374.88;;;4.11;100.00
6090;BME280;3073;42.660;23.316;2022-12-07T05:20:00;94375.84;;;4.17;100.00
6090;BME280;3073;42.660;23.316;2022-12-07T05:22:27;94377.97;;;4.20;100.00
6090;BME280;3073;42.660;23.316;2022-12-07T05:24:55;94372.75;;;4.08;100.00
6090;BME280;3073;42.660;23.316;2022-12-07T05:27:22;94359.78;;;3.98;100.00
6090;BME280;3073;42.660;23.316;2022-12-07T05:29:49;94364.66;;;4.00;100.00
6090;BME280;3073;42.660;23.316;2022-12-07T05:32:17;94366.97;;;3.95;100.00
6090;BME280;3073;42.660;23.316;2022-12-07T05:34:44;94367.22;;;3.80;100.00
6090;BME280;3073;42.660;23.316;2022-12-07T05:37:11;94367.78;;;3.89;100.00
6090;BME280;3073;42.660;23.316;2022-12-07T05:39:38;94353.81;;;3.80;100.00
6090;BME280;3073;42.660;23.316;2022-12-07T05:42:10;94354.22;;;3.83;100.00
6090;BME280;3073;42.660;23.316;2022-12-07T05:44:40;94353.72;;;4.12;100.00
6090;BME280;3073;42.660;23.316;2022-12-07T05:47:07;94348.47;;;4.14;100.00
6090;BME280;3073;42.660;23.316;2022-12-07T05:49:34;94347.06;;;4.25;100.00
6090;BME280;3073;42.660;23.316;2022-12-07T05:52:01;94345.53;;;4.17;100.00
6090;BME280;3073;42.660;23.316;2022-12-07T05:54:28;94352.72;;;4.27;100.00
6090;BME280;3073;42.660;23.316;2022-12-07T05:56:55;94353.84;;;4.31;100.00
6090;BME280;3073;42.660;23.316;2022-12-07T05:59:24;94351.06;;;4.45;100.00
6090;BME280;3073;42.660;23.316;2022-12-07T06:01:51;94352.59;;;4.53;100.00
6090;BME280;3073;42.660;23.316;2022-12-07T06:04:18;94356.09;;;4.52;100.00
6090;BME280;3073;42.660;23.316;2022-12-07T06:06:45;94357.44;;;4.54;100.00
6090;BME280;3073;42.660;23.316;2022-12-07T06:09:12;94353.50;;;4.65;100.00
6090;BME280;3073;42.660;23.316;2022-12-07T06:11:39;94356.75;;;4.72;100.00
6090;BME280;3073;42.660;23.316;2022-12-07T06:14:25;94360.41;;;4.83;100.00
6090;BME280;3073;42.660;23.316;2022-12-07T06:16:52;94364.72;;;4.76;100.00
6090;BME280;3073;42.660;23.316;2022-12-07T06:19:19;94365.84;;;4.80;100.00
6090;BME280;3073;42.660;23.316;2022-12-07T06:21:46;94369.88;;;4.87;100.00
6090;BME280;3073;42.660;23.316;2022-12-07T06:24:14;94379.97;;;4.87;100.00
6090;BME280;3073;42.660;23.316;2022-12-07T06:26:42;94379.00;;;4.88;100.00
6090;BME280;3073;42.660;23.316;2022-12-07T06:29:09;94377.88;;;4.84;100.00
6090;BME280;3073;42.660;23.316;2022-12-07T06:31:38;94375.16;;;4.86;100.00
6090;BME280;3073;42.660;23.316;2022-12-07T06:34:06;94385.88;;;4.75;100.00
6090;BME280;3073;42.660;23.316;2022-12-07T06:36:35;94386.41;;;4.52;100.00
6090;BME280;3073;42.660;23.316;2022-12-07T06:39:03;94380.06;;;4.36;100.00
6090;BME280;3073;42.660;23.316;2022-12-07T06:41:31;94374.25;;;4.29;100.00
6090;BME280;3073;42.660;23.316;2022-12-07T06:43:58;94370.75;;;4.30;100.00
6090;BME280;3073;42.660;23.316;2022-12-07T06:46:25;94375.34;;;4.46;100.00
6090;BME280;3073;42.660;23.316;2022-12-07T06:48:54;94381.22;;;4.40;100.00
6090;BME280;3073;42.660;23.316;2022-12-07T06:51:21;94380.63;;;4.38;100.00
6090;BME280;3073;42.660;23.316;2022-12-07T06:53:48;94381.22;;;4.27;100.00
6090;BME280;3073;42.660;23.316;2022-12-07T06:56:16;94386.25;;;4.40;100.00
6090;BME280;3073;42.660;23.316;2022-12-07T06:58:44;94387.34;;;4.57;100.00
6090;BME280;3073;42.660;23.316;2022-12-07T07:01:12;94383.91;;;4.45;100.00
6090;BME280;3073;42.660;23.316;2022-12-07T07:03:40;94386.94;;;4.60;100.00
6090;BME280;3073;42.660;23.316;2022-12-07T07:06:08;94384.06;;;4.88;100.00
6090;BME280;3073;42.660;23.316;2022-12-07T07:08:36;94389.09;;;4.95;100.00
6090;BME280;3073;42.660;23.316;2022-12-07T07:11:04;94388.72;;;4.91;100.00
6090;BME280;3073;42.660;23.316;2022-12-07T07:13:32;94390.53;;;4.78;100.00
6090;BME280;3073;42.660;23.316;2022-12-07T07:15:59;94393.13;;;4.64;100.00
6090;BME280;3073;42.660;23.316;2022-12-07T07:18:26;94383.13;;;4.83;100.00
6090;BME280;3073;42.660;23.316;2022-12-07T07:20:53;94390.00;;;5.07;100.00
6090;BME280;3073;42.660;23.316;2022-12-07T07:23:22;94380.50;;;5.27;100.00
6090;BME280;3073;42.660;23.316;2022-12-07T07:25:49;94385.50;;;5.09;100.00
6090;BME280;3073;42.660;23.316;2022-12-07T07:28:16;94386.34;;;5.28;100.00
6090;BME280;3073;42.660;23.316;2022-12-07T07:30:43;94396.75;;;5.13;100.00
6090;BME280;3073;42.660;23.316;2022-12-07T07:33:11;94399.44;;;5.18;100.00
6090;BME280;3073;42.660;23.316;2022-12-07T07:35:38;94406.56;;;5.03;100.00
6090;BME280;3073;42.660;23.316;2022-12-07T07:38:05;94398.75;;;5.04;100.00
6090;BME280;3073;42.660;23.316;2022-12-07T07:40:34;94407.41;;;4.84;100.00
6090;BME280;3073;42.660;23.316;2022-12-07T07:43:01;94397.72;;;5.12;100.00
6090;BME280;3073;42.660;23.316;2022-12-07T07:45:27;94402.81;;;5.37;100.00
6090;BME280;3073;42.660;23.316;2022-12-07T07:47:54;94403.50;;;5.50;100.00
6090;BME280;3073;42.660;23.316;2022-12-07T07:50:21;94406.06;;;5.44;100.00
6090;BME280;3073;42.660;23.316;2022-12-07T07:52:48;94399.47;;;5.43;100.00
6090;BME280;3073;42.660;23.316;2022-12-07T07:55:15;94404.84;;;5.53;100.00
6090;BME280;3073;42.660;23.316;2022-12-07T07:57:43;94400.09;;;5.63;100.00
6090;BME280;3073;42.660;23.316;2022-12-07T08:00:12;94408.25;;;5.40;100.00
6090;BME280;3073;42.660;23.316;2022-12-07T08:02:40;94397.50;;;5.45;100.00
6090;BME280;3073;42.660;23.316;2022-12-07T08:05:08;94406.88;;;5.38;100.00
6090;BME280;3073;42.660;23.316;2022-12-07T08:07:35;94394.38;;;5.67;100.00
6090;BME280;3073;42.660;23.316;2022-12-07T08:10:04;94397.88;;;5.73;100.00
6090;BME280;3073;42.660;23.316;2022-12-07T08:12:35;94404.69;;;5.72;100.00
6090;BME280;3073;42.660;23.316;2022-12-07T08:15:04;94394.59;;;5.66;100.00
6090;BME280;3073;42.660;23.316;2022-12-07T08:17:32;94399.38;;;5.74;100.00
6090;BME280;3073;42.660;23.316;2022-12-07T08:19:59;94397.00;;;6.04;100.00
6090;BME280;3073;42.660;23.316;2022-12-07T08:22:26;94395.75;;;6.13;100.00
6090;BME280;3073;42.660;23.316;2022-12-07T08:24:53;94396.75;;;6.30;100.00
6090;BME280;3073;42.660;23.316;2022-12-07T08:27:20;94403.06;;;6.39;100.00
6090;BME280;3073;42.660;23.316;2022-12-07T08:29:52;94404.03;;;6.38;100.00
6090;BME280;3073;42.660;23.316;2022-12-07T08:32:21;94404.56;;;6.47;100.00
6090;BME280;3073;42.660;23.316;2022-12-07T08:34:48;94409.19;;;6.50;100.00
6090;BME280;3073;42.660;23.316;2022-12-07T08:37:15;94417.69;;;6.55;100.00
6090;BME280;3073;42.660;23.316;2022-12-07T08:39:42;94411.94;;;6.48;100.00
6090;BME280;3073;42.660;23.316;2022-12-07T08:42:09;94410.44;;;6.59;100.00
6090;BME280;3073;42.660;23.316;2022-12-07T08:44:35;94410.38;;;6.65;100.00
6090;BME280;3073;42.660;23.316;2022-12-07T08:47:04;94398.56;;;6.41;100.00
6090;BME280;3073;42.660;23.316;2022-12-07T08:49:36;94402.16;;;6.15;100.00
6090;BME280;3073;42.660;23.316;2022-12-07T08:52:05;94391.34;;;5.84;100.00
6090;BME280;3073;42.660;23.316;2022-12-07T08:54:34;94391.94;;;6.04;100.00
6090;BME280;3073;42.660;23.316;2022-12-07T08:57:02;94392.22;;;6.14;100.00
6090;BME280;3073;42.660;23.316;2022-12-07T08:59:37;94387.88;;;6.39;100.00
6090;BME280;3073;42.660;23.316;2022-12-07T09:02:04;94381.94;;;6.45;100.00
6090;BME280;3073;42.660;23.316;2022-12-07T09:04:31;94381.69;;;6.17;100.00
6090;BME280;3073;42.660;23.316;2022-12-07T09:06:59;94373.66;;;6.20;100.00
6090;BME280;3073;42.660;23.316;2022-12-07T09:09:26;94378.59;;;6.33;100.00
6090;BME280;3073;42.660;23.316;2022-12-07T09:11:53;94382.66;;;6.34;100.00
6090;BME280;3073;42.660;23.316;2022-12-07T09:14:20;94377.72;;;6.39;100.00
6090;BME280;3073;42.660;23.316;2022-12-07T09:16:47;94376.59;;;6.35;100.00
6090;BME280;3073;42.660;23.316;2022-12-07T09:19:14;94374.41;;;6.39;100.00
6090;BME280;3073;42.660;23.316;2022-12-07T09:21:41;94370.09;;;6.57;100.00
6090;BME280;3073;42.660;23.316;2022-12-07T09:24:09;94366.31;;;6.78;100.00
6090;BME280;3073;42.660;23.316;2022-12-07T09:26:36;94370.41;;;6.79;100.00
6090;BME280;3073;42.660;23.316;2022-12-07T09:29:04;94380.84;;;7.01;100.00
6090;BME280;3073;42.660;23.316;2022-12-07T09:31:31;94382.03;;;6.98;100.00
6090;BME280;3073;42.660;23.316;2022-12-07T09:33:59;94370.69;;;7.01;100.00
6090;BME280;3073;42.660;23.316;2022-12-07T09:36:27;94351.09;;;7.08;100.00
6090;BME280;3073;42.660;23.316;2022-12-07T09:38:55;94361.75;;;6.98;100.00
6090;BME280;3073;42.660;23.316;2022-12-07T09:41:24;94363.41;;;6.93;100.00
6090;BME280;3073;42.660;23.316;2022-12-07T09:43:52;94352.19;;;7.00;100.00
6090;BME280;3073;42.660;23.316;2022-12-07T09:46:20;94354.81;;;6.94;100.00
6090;BME280;3073;42.660;23.316;2022-12-07T09:48:49;94343.13;;;7.04;100.00
6090;BME280;3073;42.660;23.316;2022-12-07T09:51:19;94350.53;;;7.06;100.00
6090;BME280;3073;42.660;23.316;2022-12-07T09:53:47;94348.25;;;7.28;100.00
6090;BME280;3073;42.660;23.316;2022-12-07T09:56:15;94344.31;;;7.43;100.00
6090;BME280;3073;42.660;23.316;2022-12-07T09:58:44;94342.66;;;7.49;100.00
6090;BME280;3073;42.660;23.316;2022-12-07T10:01:14;94338.09;;;7.51;100.00
6090;BME280;3073;42.660;23.316;2022-12-07T10:03:46;94338.34;;;7.61;100.00
6090;BME280;3073;42.660;23.316;2022-12-07T10:06:15;94345.50;;;7.75;100.00
6090;BME280;3073;42.660;23.316;2022-12-07T10:08:42;94337.66;;;7.89;100.00
6090;BME280;3073;42.660;23.316;2022-12-07T10:11:09;94335.53;;;8.09;100.00
6090;BME280;3073;42.660;23.316;2022-12-07T10:13:38;94333.72;;;8.21;100.00
6090;BME280;3073;42.660;23.316;2022-12-07T10:16:31;94338.81;;;8.21;100.00
6090;BME280;3073;42.660;23.316;2022-12-07T10:19:18;94337.72;;;8.28;100.00
6090;BME280;3073;42.660;23.316;2022-12-07T10:22:04;94335.84;;;8.36;100.00
6090;BME280;3073;42.660;23.316;2022-12-07T10:24:32;94336.88;;;8.51;100.00
6090;BME280;3073;42.660;23.316;2022-12-07T10:26:59;94325.63;;;8.47;100.00
6090;BME280;3073;42.660;23.316;2022-12-07T10:29:29;94321.63;;;8.51;100.00
6090;BME280;3073;42.660;23.316;2022-12-07T10:32:01;94318.53;;;8.49;100.00
6090;BME280;3073;42.660;23.316;2022-12-07T10:34:30;94306.44;;;8.28;100.00
6090;BME280;3073;42.660;23.316;2022-12-07T10:37:14;94307.66;;;8.25;100.00
6090;BME280;3073;42.660;23.316;2022-12-07T10:39:43;94301.78;;;8.25;100.00
6090;BME280;3073;42.660;23.316;2022-12-07T10:42:17;94301.28;;;8.11;100.00
6090;BME280;3073;42.660;23.316;2022-12-07T10:44:45;94295.69;;;7.98;100.00
6090;BME280;3073;42.660;23.316;2022-12-07T10:47:25;94296.06;;;8.18;100.00
6090;BME280;3073;42.660;23.316;2022-12-07T10:50:17;94284.69;;;8.20;100.00
6090;BME280;3073;42.660;23.316;2022-12-07T10:52:58;94289.03;;;8.08;100.00
6090;BME280;3073;42.660;23.316;2022-12-07T10:55:34;94282.69;;;8.22;100.00
6090;BME280;3073;42.660;23.316;2022-12-07T10:58:19;94273.06;;;8.36;100.00
6090;BME280;3073;42.660;23.316;2022-12-07T11:00:56;94269.44;;;8.32;100.00
6090;BME280;3073;42.660;23.316;2022-12-07T11:03:37;94270.88;;;8.28;100.00
6090;BME280;3073;42.660;23.316;2022-12-07T11:06:20;94264.66;;;8.64;100.00
6090;BME280;3073;42.660;23.316;2022-12-07T11:08:59;94270.16;;;8.89;100.00
6090;BME280;3073;42.660;23.316;2022-12-07T11:11:34;94269.91;;;9.07;100.00
6090;BME280;3073;42.660;23.316;2022-12-07T11:14:06;94265.56;;;9.79;100.00
6090;BME280;3073;42.660;23.316;2022-12-07T11:16:49;94266.47;;;10.33;100.00
6090;BME280;3073;42.660;23.316;2022-12-07T11:19:33;94267.81;;;10.41;100.00
6090;BME280;3073;42.660;23.316;2022-12-07T11:22:06;94259.94;;;10.21;100.00
6090;BME280;3073;42.660;23.316;2022-12-07T11:24:50;94266.44;;;10.12;100.00
6090;BME280;3073;42.660;23.316;2022-12-07T11:27:26;94265.78;;;10.70;100.00
6090;BME280;3073;42.660;23.316;2022-12-07T11:30:14;94257.22;;;11.18;100.00
6090;BME280;3073;42.660;23.316;2022-12-07T11:33:02;94253.78;;;12.58;100.00
6090;BME280;3073;42.660;23.316;2022-12-07T11:35:38;94241.03;;;13.34;100.00
6090;BME280;3073;42.660;23.316;2022-12-07T11:38:11;94243.84;;;14.17;100.00
6090;BME280;3073;42.660;23.316;2022-12-07T11:40:40;94247.47;;;14.11;100.00
6090;BME280;3073;42.660;23.316;2022-12-07T11:43:18;94257.88;;;14.39;100.00
6090;BME280;3073;42.660;23.316;2022-12-07T11:45:52;94253.81;;;14.77;100.00
6090;BME280;3073;42.660;23.316;2022-12-07T11:48:25;94246.19;;;14.62;100.00
6090;BME280;3073;42.660;23.316;2022-12-07T11:50:57;94248.13;;;14.80;98.78
6090;BME280;3073;42.660;23.316;2022-12-07T11:53:26;94242.41;;;15.22;96.17
6090;BME280;3073;42.660;23.316;2022-12-07T11:55:57;94243.25;;;15.70;88.37
6090;BME280;3073;42.660;23.316;2022-12-07T11:58:42;94237.28;;;15.75;80.25
6090;BME280;3073;42.660;23.316;2022-12-07T12:01:22;94232.09;;;15.80;82.63
6090;BME280;3073;42.660;23.316;2022-12-07T12:03:57;94232.56;;;15.29;84.29
6090;BME280;3073;42.660;23.316;2022-12-07T12:06:26;94227.56;;;15.43;87.02
6090;BME280;3073;42.660;23.316;2022-12-07T12:08:56;94223.59;;;16.03;81.10
6090;BME280;3073;42.660;23.316;2022-12-07T12:11:39;94224.09;;;15.81;79.31
6090;BME280;3073;42.660;23.316;2022-12-07T12:14:21;94211.81;;;16.58;74.87
6090;BME280;3073;42.660;23.316;2022-12-07T12:17:24;94210.28;;;17.22;69.58
6090;BME280;3073;42.660;23.316;2022-12-07T12:20:03;94212.00;;;17.13;68.18
6090;BME280;3073;42.660;23.316;2022-12-07T12:22:37;94206.19;;;17.07;69.11
6090;BME280;3073;42.660;23.316;2022-12-07T12:25:12;94209.44;;;16.80;69.67
6090;BME280;3073;42.660;23.316;2022-12-07T12:27:46;94203.75;;;16.97;68.64
6090;BME280;3073;42.660;23.316;2022-12-07T12:30:28;94200.47;;;16.59;68.54
6090;BME280;3073;42.660;23.316;2022-12-07T12:33:03;94188.78;;;15.39;75.47
6090;BME280;3073;42.660;23.316;2022-12-07T12:35:32;94177.97;;;14.07;86.49
6090;BME280;3073;42.660;23.316;2022-12-07T12:38:32;94181.44;;;13.77;97.33
6090;BME280;3073;42.660;23.316;2022-12-07T12:41:00;94170.56;;;14.01;98.95
6090;BME280;3073;42.660;23.316;2022-12-07T12:43:49;94170.38;;;14.31;94.94
6090;BME280;3073;42.660;23.316;2022-12-07T12:46:37;94176.94;;;14.86;86.64
6090;BME280;3073;42.660;23.316;2022-12-07T12:49:38;94182.84;;;15.15;85.76
6090;BME280;3073;42.660;23.316;2022-12-07T12:58:41;94186.31;;;16.19;70.17
6090;BME280;3073;42.660;23.316;2022-12-07T13:01:38;94188.00;;;16.29;70.78
6090;BME280;3073;42.660;23.316;2022-12-07T13:04:25;94193.44;;;16.27;73.02
6090;BME280;3073;42.660;23.316;2022-12-07T13:06:53;94195.63;;;16.15;72.60
6090;BME280;3073;42.660;23.316;2022-12-07T13:09:23;94187.72;;;15.69;76.98
6090;BME280;3073;42.660;23.316;2022-12-07T13:11:58;94188.69;;;16.16;73.43
6090;BME280;3073;42.660;23.316;2022-12-07T13:14:57;94184.50;;;16.38;72.96
6090;BME280;3073;42.660;23.316;2022-12-07T13:17:57;94185.13;;;16.49;70.03
6090;BME280;3073;42.660;23.316;2022-12-07T13:20:52;94183.78;;;15.53;74.41
6090;BME280;3073;42.660;23.316;2022-12-07T13:23:23;94186.97;;;15.11;79.71
6090;BME280;3073;42.660;23.316;2022-12-07T13:25:55;94184.88;;;14.89;86.25
6090;BME280;3073;42.660;23.316;2022-12-07T13:28:33;94179.22;;;15.16;84.87
6090;BME280;3073;42.660;23.316;2022-12-07T13:31:13;94175.44;;;15.61;79.10
6090;BME280;3073;42.660;23.316;2022-12-07T13:33:43;94173.66;;;16.04;76.35
6090;BME280;3073;42.660;23.316;2022-12-07T13:36:17;94184.22;;;15.31;79.84
6090;BME280;3073;42.660;23.316;2022-12-07T13:38:51;94177.44;;;15.17;81.59
6090;BME280;3073;42.660;23.316;2022-12-07T13:41:19;94176.44;;;15.13;82.94